createdAt,value
2023-04-24T00:01:29.974Z,10.03
2023-04-24T00:04:00.590Z,9.97
2023-04-24T00:06:34.049Z,9.96
2023-04-24T00:09:01.861Z,9.85
2023-04-24T00:11:29.157Z,9.83
2023-04-24T00:13:56.671Z,9.77
2023-04-24T00:16:24.092Z,9.79
2023-04-24T00:18:53.647Z,9.77
2023-04-24T00:21:21.467Z,9.73
2023-04-24T00:23:48.856Z,9.76
2023-04-24T00:26:15.921Z,9.69
2023-04-24T00:28:42.991Z,9.63
2023-04-24T00:31:10.057Z,9.71
2023-04-24T00:33:37.192Z,9.68
2023-04-24T00:36:04.330Z,9.71
2023-04-24T00:38:31.422Z,9.72
2023-04-24T00:40:58.450Z,9.68
2023-04-24T00:43:25.749Z,9.67
2023-04-24T00:45:52.977Z,9.70
2023-04-24T00:48:21.333Z,9.64
2023-04-24T00:50:48.477Z,9.58
2023-04-24T00:53:15.837Z,9.61
2023-04-24T00:55:43.079Z,9.59
2023-04-24T00:58:10.361Z,9.60
2023-04-24T01:00:37.805Z,9.62
2023-04-24T01:03:05.926Z,9.54
2023-04-24T01:05:34.986Z,9.54
2023-04-24T01:08:02.479Z,9.48
2023-04-24T01:10:32.795Z,9.54
2023-04-24T01:13:00.672Z,9.47
2023-04-24T01:15:27.732Z,9.43
2023-04-24T01:17:54.844Z,9.47
2023-04-24T01:20:22.052Z,9.50
2023-04-24T01:22:49.350Z,9.51
2023-04-24T01:25:16.504Z,9.51
2023-04-24T01:27:43.643Z,9.41
2023-04-24T01:30:12.877Z,9.36
2023-04-24T01:32:39.955Z,9.31
2023-04-24T01:35:07.779Z,9.32
2023-04-24T01:37:34.865Z,9.21
2023-04-24T01:40:01.990Z,9.24
2023-04-24T01:42:29.442Z,9.27
2023-04-24T01:44:57.722Z,9.31
2023-04-24T01:47:25.384Z,9.23
2023-04-24T01:49:52.577Z,9.24
2023-04-24T01:52:19.833Z,9.32
2023-04-24T01:54:48.349Z,9.36
2023-04-24T01:57:16.361Z,9.37
2023-04-24T01:59:43.802Z,9.40
2023-04-24T02:02:11.069Z,9.36
2023-04-24T02:04:38.294Z,9.33
2023-04-24T02:07:05.557Z,9.31
2023-04-24T02:09:33.636Z,9.33
2023-04-24T02:12:01.548Z,9.32
2023-04-24T02:14:28.622Z,9.30
2023-04-24T02:16:55.903Z,9.26
2023-04-24T02:19:23.709Z,9.32
2023-04-24T02:21:51.720Z,9.37
2023-04-24T02:24:18.739Z,9.40
2023-04-24T02:26:46.063Z,9.42
2023-04-24T02:29:13.203Z,9.40
2023-04-24T02:31:42.149Z,9.33
2023-04-24T02:34:09.267Z,9.28
2023-04-24T02:36:36.341Z,9.24
2023-04-24T02:39:04.598Z,9.21
2023-04-24T02:41:33.740Z,9.28
2023-04-24T02:44:00.946Z,9.21
2023-04-24T02:46:28.093Z,9.18
2023-04-24T02:48:55.218Z,9.19
2023-04-24T02:51:22.357Z,9.17
2023-04-24T02:53:49.435Z,9.16
2023-04-24T02:56:16.598Z,9.11
2023-04-24T02:58:43.725Z,9.16
2023-04-24T03:01:11.192Z,9.15
2023-04-24T03:03:39.104Z,9.13
2023-04-24T03:06:09.370Z,9.12
2023-04-24T03:08:36.458Z,9.09
2023-04-24T03:11:05.570Z,9.08
2023-04-24T03:13:32.652Z,9.08
2023-04-24T03:15:59.719Z,9.03
2023-04-24T03:18:28.600Z,9.02
2023-04-24T03:20:55.758Z,9.05
2023-04-24T03:23:23.030Z,9.08
2023-04-24T03:25:51.480Z,9.12
2023-04-24T03:28:20.727Z,9.08
2023-04-24T03:30:57.727Z,9.09
2023-04-24T03:33:26.499Z,9.07
2023-04-24T03:35:59.985Z,9.08
2023-04-24T03:38:28.386Z,9.10
2023-04-24T03:41:15.492Z,9.07
2023-04-24T03:43:49.611Z,9.05
2023-04-24T03:46:17.303Z,9.08
2023-04-24T03:48:50.792Z,9.11
2023-04-24T03:51:19.878Z,9.11
2023-04-24T03:53:49.983Z,9.05
2023-04-24T03:56:19.941Z,8.99
2023-04-24T03:58:47.357Z,9.00
2023-04-24T04:01:16.907Z,9.01
2023-04-24T04:04:10.404Z,8.97
2023-04-24T04:06:38.604Z,8.95
2023-04-24T04:09:06.234Z,8.94
2023-04-24T04:11:33.334Z,8.90
2023-04-24T04:14:00.619Z,8.89
2023-04-24T04:16:27.875Z,8.89
2023-04-24T04:19:01.165Z,8.88
2023-04-24T04:21:28.948Z,8.86
2023-04-24T04:24:06.506Z,8.83
2023-04-24T04:26:38.771Z,8.81
2023-04-24T04:29:08.630Z,8.85
2023-04-24T04:31:39.915Z,8.90
2023-04-24T04:34:12.592Z,8.88
2023-04-24T04:36:41.721Z,8.86
2023-04-24T04:39:32.139Z,8.84
2023-04-24T04:42:07.894Z,8.86
2023-04-24T04:44:40.844Z,8.81
2023-04-24T04:47:11.773Z,8.81
2023-04-24T04:49:39.763Z,8.80
2023-04-24T04:52:15.707Z,8.85
2023-04-24T04:54:42.976Z,8.81
2023-04-24T04:57:10.055Z,8.79
2023-04-24T04:59:38.128Z,8.76
2023-04-24T05:02:10.219Z,8.76
2023-04-24T05:04:37.754Z,8.79
2023-04-24T05:07:05.587Z,8.80
2023-04-24T05:09:34.752Z,8.74
2023-04-24T05:12:04.839Z,8.76
2023-04-24T05:14:36.170Z,8.76
2023-04-24T05:17:03.903Z,8.82
2023-04-24T05:19:34.211Z,8.84
2023-04-24T05:22:04.128Z,8.85
2023-04-24T05:24:31.689Z,8.85
2023-04-24T05:27:21.788Z,8.90
2023-04-24T05:29:49.824Z,8.92
2023-04-24T05:32:16.880Z,8.91
2023-04-24T05:34:43.991Z,8.89
2023-04-24T05:37:11.267Z,8.89
2023-04-24T05:39:38.849Z,8.97
2023-04-24T05:42:06.288Z,9.02
2023-04-24T05:44:33.291Z,9.02
2023-04-24T05:47:00.530Z,9.01
2023-04-24T05:49:27.773Z,9.01
2023-04-24T05:51:55.313Z,9.04
2023-04-24T05:54:22.966Z,9.08
2023-04-24T05:56:50.687Z,9.08
2023-04-24T05:59:31.650Z,9.10
2023-04-24T06:01:58.894Z,9.08
2023-04-24T06:04:26.446Z,9.11
2023-04-24T06:06:56.964Z,9.14
2023-04-24T06:09:24.331Z,9.16
2023-04-24T06:11:53.841Z,9.17
2023-04-24T06:14:23.827Z,9.21
2023-04-24T06:17:10.916Z,9.26
2023-04-24T06:19:41.563Z,9.33
2023-04-24T06:22:10.897Z,9.43
2023-04-24T06:24:38.259Z,9.54
2023-04-24T06:27:05.323Z,9.63
2023-04-24T06:29:32.938Z,9.69
2023-04-24T06:32:00.142Z,9.78
2023-04-24T06:34:27.242Z,9.79
2023-04-24T06:36:55.113Z,9.83
2023-04-24T06:39:22.148Z,9.87
2023-04-24T06:41:49.194Z,9.86
2023-04-24T06:44:20.730Z,9.86
2023-04-24T06:46:47.815Z,9.89
2023-04-24T06:49:16.991Z,9.92
2023-04-24T06:51:44.239Z,9.97
2023-04-24T06:54:11.278Z,10.08
2023-04-24T06:56:38.574Z,10.14
2023-04-24T06:59:05.758Z,10.19
2023-04-24T07:01:32.831Z,10.22
2023-04-24T07:04:00.551Z,10.26
2023-04-24T07:06:28.363Z,10.32
2023-04-24T07:08:56.200Z,10.36
2023-04-24T07:11:23.289Z,10.41
2023-04-24T07:13:50.364Z,10.44
2023-04-24T07:16:17.504Z,10.43
2023-04-24T07:18:44.626Z,10.45
2023-04-24T07:21:12.468Z,10.53
2023-04-24T07:23:39.553Z,10.61
2023-04-24T07:26:06.738Z,10.63
2023-04-24T07:28:34.027Z,10.51
2023-04-24T07:31:01.188Z,10.41
2023-04-24T07:33:28.235Z,10.38
2023-04-24T07:35:55.617Z,10.44
2023-04-24T07:38:23.135Z,10.47
2023-04-24T07:40:50.285Z,10.52
2023-04-24T07:43:17.822Z,10.61
2023-04-24T07:45:45.156Z,10.62
2023-04-24T07:48:12.296Z,10.72
2023-04-24T07:50:39.389Z,10.81
2023-04-24T07:53:06.508Z,10.86
2023-04-24T07:55:33.544Z,10.87
2023-04-24T07:58:00.714Z,10.84
2023-04-24T08:00:27.861Z,10.68
2023-04-24T08:02:55.062Z,10.42
2023-04-24T08:05:22.402Z,10.27
2023-04-24T08:07:49.768Z,10.27
2023-04-24T08:10:17.025Z,10.28
2023-04-24T08:12:44.095Z,10.25
2023-04-24T08:15:11.353Z,10.31
2023-04-24T08:17:38.421Z,10.32
2023-04-24T08:20:06.346Z,10.36
2023-04-24T08:22:33.571Z,10.42
2023-04-24T08:25:01.076Z,10.35
2023-04-24T08:27:28.732Z,10.46
2023-04-24T08:29:56.053Z,10.46
2023-04-24T08:32:23.122Z,10.42
2023-04-24T08:34:50.169Z,10.37
2023-04-24T08:37:17.186Z,10.37
2023-04-24T08:39:44.552Z,10.34
2023-04-24T08:42:12.395Z,10.39
2023-04-24T08:44:39.584Z,10.45
2023-04-24T08:47:08.457Z,10.53
2023-04-24T08:49:37.087Z,10.65
2023-04-24T08:52:04.666Z,10.82
2023-04-24T08:54:32.301Z,10.82
2023-04-24T08:57:02.477Z,10.93
2023-04-24T08:59:29.853Z,10.91
2023-04-24T09:01:57.720Z,10.89
2023-04-24T09:04:28.788Z,10.78
2023-04-24T09:06:57.054Z,10.86
2023-04-24T09:09:25.322Z,10.93
2023-04-24T09:11:54.723Z,11.05
2023-04-24T09:14:22.267Z,10.96
2023-04-24T09:16:49.467Z,10.91
2023-04-24T09:19:16.562Z,11.02
2023-04-24T09:21:46.580Z,10.90
2023-04-24T09:24:23.385Z,10.92
2023-04-24T09:26:58.192Z,11.15
2023-04-24T09:29:25.677Z,11.45
2023-04-24T09:31:52.785Z,11.66
2023-04-24T09:34:26.759Z,11.80
2023-04-24T09:36:54.197Z,11.97
2023-04-24T09:39:21.243Z,11.88
2023-04-24T09:41:48.326Z,12.03
2023-04-24T09:44:16.433Z,12.19
2023-04-24T09:46:44.549Z,12.56
2023-04-24T09:49:13.281Z,12.78
2023-04-24T09:51:40.795Z,12.77
2023-04-24T09:54:23.498Z,13.03
2023-04-24T09:56:51.628Z,12.85
2023-04-24T09:59:19.937Z,13.41
2023-04-24T10:01:47.613Z,13.64
2023-04-24T10:04:19.456Z,13.40
2023-04-24T10:06:47.114Z,12.96
2023-04-24T10:09:14.865Z,12.86
2023-04-24T10:11:48.721Z,12.83
2023-04-24T10:14:16.998Z,12.65
2023-04-24T10:16:44.629Z,12.87
2023-04-24T10:19:14.488Z,12.95
2023-04-24T10:21:43.581Z,12.73
2023-04-24T10:24:11.479Z,12.72
2023-04-24T10:26:39.280Z,12.49
2023-04-24T10:29:10.820Z,12.32
2023-04-24T10:31:39.152Z,12.06
2023-04-24T10:34:06.920Z,11.97
2023-04-24T10:36:34.902Z,12.05
2023-04-24T10:39:07.537Z,12.01
2023-04-24T10:41:38.016Z,11.81
2023-04-24T10:44:07.939Z,11.81
2023-04-24T10:46:35.382Z,11.81
2023-04-24T10:49:10.521Z,11.71
2023-04-24T10:51:50.744Z,11.62
2023-04-24T10:54:24.306Z,11.92
2023-04-24T10:56:51.647Z,11.88
2023-04-24T10:59:26.060Z,11.94
2023-04-24T11:01:56.467Z,12.16
2023-04-24T11:04:30.894Z,12.10
2023-04-24T11:06:58.309Z,12.02
2023-04-24T11:09:27.548Z,11.91
2023-04-24T11:12:03.983Z,11.77
2023-04-24T11:14:31.033Z,11.74
2023-04-24T11:16:58.293Z,11.79
2023-04-24T11:19:26.573Z,11.76
2023-04-24T11:21:56.719Z,11.76
2023-04-24T11:24:26.648Z,12.18
2023-04-24T11:26:57.877Z,12.34
2023-04-24T11:29:39.299Z,12.71
2023-04-24T11:32:24.761Z,12.89
2023-04-24T11:34:53.023Z,12.71
2023-04-24T11:37:20.213Z,12.79
2023-04-24T11:39:47.432Z,13.08
2023-04-24T11:42:17.412Z,12.79
2023-04-24T11:44:44.517Z,12.77
2023-04-24T11:47:11.632Z,12.60
2023-04-24T11:49:39.067Z,12.49
2023-04-24T11:52:06.401Z,12.57
2023-04-24T11:54:33.897Z,12.66
2023-04-24T11:57:04.795Z,12.49
2023-04-24T11:59:36.012Z,12.55
2023-04-24T12:02:03.072Z,12.68
2023-04-24T12:04:39.328Z,12.64
2023-04-24T12:07:06.959Z,12.79
2023-04-24T12:09:52.669Z,12.48
2023-04-24T12:12:19.896Z,12.02
2023-04-24T12:14:56.163Z,12.05
2023-04-24T12:17:30.316Z,12.11
2023-04-24T12:20:01.839Z,12.11
2023-04-24T12:22:29.469Z,11.92
2023-04-24T12:24:57.758Z,11.85
2023-04-24T12:27:24.879Z,11.66
2023-04-24T12:29:56.965Z,11.42
2023-04-24T12:32:24.972Z,11.21
2023-04-24T12:34:53.635Z,11.20
2023-04-24T12:37:21.144Z,11.08
2023-04-24T12:40:06.865Z,11.04
2023-04-24T12:42:34.775Z,10.92
2023-04-24T12:45:02.703Z,11.09
2023-04-24T12:47:29.892Z,11.19
2023-04-24T12:49:57.224Z,11.29
2023-04-24T12:52:25.059Z,11.46
2023-04-24T12:54:56.098Z,11.57
2023-04-24T12:57:23.862Z,11.63
2023-04-24T12:59:51.532Z,11.77
2023-04-24T13:02:18.845Z,11.69
2023-04-24T13:04:47.641Z,11.68
2023-04-24T13:07:15.621Z,11.64
2023-04-24T13:09:43.231Z,11.42
2023-04-24T13:12:10.894Z,11.37
2023-04-24T13:14:38.057Z,11.37
2023-04-24T13:17:05.374Z,11.37
2023-04-24T13:19:37.299Z,10.92
2023-04-24T13:22:04.475Z,10.76
2023-04-24T13:24:32.211Z,10.72
2023-04-24T13:26:59.658Z,10.68
2023-04-24T13:29:26.738Z,10.56
2023-04-24T13:31:57.945Z,10.57
2023-04-24T13:34:26.180Z,10.43
2023-04-24T13:36:54.258Z,10.35
2023-04-24T13:39:21.963Z,10.38
2023-04-24T13:41:49.213Z,10.25
2023-04-24T13:44:19.815Z,10.36
2023-04-24T13:46:47.594Z,10.20
2023-04-24T13:49:14.904Z,10.16
2023-04-24T13:51:43.050Z,10.14
2023-04-24T13:54:10.194Z,10.26
2023-04-24T13:56:37.325Z,10.36
2023-04-24T13:59:04.392Z,10.52
2023-04-24T14:01:31.835Z,10.63
2023-04-24T14:03:59.118Z,10.64
2023-04-24T14:06:26.810Z,10.74
2023-04-24T14:08:53.851Z,10.74
2023-04-24T14:11:21.041Z,10.73
2023-04-24T14:13:48.143Z,10.79
2023-04-24T14:16:15.733Z,10.71
2023-04-24T14:18:42.789Z,10.60
2023-04-24T14:21:09.915Z,10.49
2023-04-24T14:23:36.988Z,10.55
2023-04-24T14:26:04.095Z,10.51
2023-04-24T14:28:31.443Z,10.48
2023-04-24T14:30:58.493Z,10.39
2023-04-24T14:33:25.548Z,10.40
2023-04-24T14:35:52.591Z,10.37
2023-04-24T14:38:19.639Z,10.32
2023-04-24T14:41:05.500Z,10.39
2023-04-24T14:43:34.998Z,10.53
2023-04-24T14:46:02.556Z,10.76
2023-04-24T14:48:29.624Z,10.77
2023-04-24T14:50:56.721Z,10.78
2023-04-24T14:53:23.850Z,10.84
2023-04-24T14:55:51.173Z,10.82
2023-04-24T14:58:19.172Z,10.78
2023-04-24T15:00:46.457Z,10.77
2023-04-24T15:03:13.833Z,10.84
2023-04-24T15:05:41.235Z,10.80
2023-04-24T15:08:08.368Z,10.83
2023-04-24T15:10:36.133Z,10.84
2023-04-24T15:13:03.258Z,10.84
2023-04-24T15:15:30.356Z,10.84
2023-04-24T15:17:57.473Z,10.93
2023-04-24T15:20:24.553Z,10.87
2023-04-24T15:22:51.601Z,10.78
2023-04-24T15:25:18.644Z,10.62
2023-04-24T15:27:46.468Z,10.50
2023-04-24T15:30:14.151Z,10.40
2023-04-24T15:32:41.333Z,10.29
2023-04-24T15:35:10.044Z,10.02
2023-04-24T15:37:38.233Z,9.74
2023-04-24T15:40:06.604Z,9.80
2023-04-24T15:42:33.837Z,9.91
2023-04-24T15:45:00.930Z,9.96
2023-04-24T15:47:28.174Z,9.86
2023-04-24T15:49:55.272Z,9.89
2023-04-24T15:52:22.596Z,9.92
2023-04-24T15:54:49.776Z,9.94
2023-04-24T15:57:16.910Z,10.06
2023-04-24T15:59:44.342Z,10.11
2023-04-24T16:02:14.554Z,10.10
2023-04-24T16:04:41.792Z,10.12
2023-04-24T16:07:08.918Z,10.05
2023-04-24T16:09:36.175Z,10.00
2023-04-24T16:12:03.358Z,9.87
2023-04-24T16:14:30.428Z,9.79
2023-04-24T16:16:57.494Z,9.67
2023-04-24T16:19:24.687Z,9.66
2023-04-24T16:21:54.178Z,9.70
2023-04-24T16:24:21.295Z,9.67
2023-04-24T16:26:48.380Z,9.69
2023-04-24T16:29:15.535Z,9.61
2023-04-24T16:31:42.814Z,9.47
2023-04-24T16:34:09.906Z,9.31
2023-04-24T16:36:37.338Z,9.30
2023-04-24T16:39:05.317Z,9.23
2023-04-24T16:41:32.363Z,9.38
2023-04-24T16:43:59.445Z,9.50
2023-04-24T16:46:26.533Z,9.55
2023-04-24T16:48:53.620Z,9.54
2023-04-24T16:51:21.179Z,9.55
2023-04-24T16:53:48.256Z,9.53
2023-04-24T16:56:15.786Z,9.50
2023-04-24T16:58:43.027Z,9.44
2023-04-24T17:01:10.171Z,9.27
2023-04-24T17:03:37.543Z,9.26
2023-04-24T17:06:04.871Z,9.17
2023-04-24T17:08:32.853Z,9.08
2023-04-24T17:11:00.006Z,9.10
2023-04-24T17:13:27.080Z,9.09
2023-04-24T17:15:54.134Z,9.12
2023-04-24T17:18:21.411Z,9.10
2023-04-24T17:20:48.571Z,8.99
2023-04-24T17:23:15.827Z,9.04
2023-04-24T17:25:42.849Z,9.03
2023-04-24T17:28:16.133Z,8.93
2023-04-24T17:30:43.238Z,8.92
2023-04-24T17:33:10.417Z,8.94
2023-04-24T17:35:37.464Z,8.87
2023-04-24T17:38:04.517Z,8.87
2023-04-24T17:40:31.593Z,8.82
2023-04-24T17:42:58.647Z,8.73
2023-04-24T17:45:25.861Z,8.72
2023-04-24T17:47:53.151Z,8.68
2023-04-24T17:50:20.425Z,8.70
2023-04-24T17:52:47.470Z,8.67
2023-04-24T17:55:14.991Z,8.70
2023-04-24T17:57:42.129Z,8.66
2023-04-24T18:00:09.594Z,8.59
2023-04-24T18:02:36.938Z,8.69
2023-04-24T18:05:04.234Z,8.61
2023-04-24T18:07:31.306Z,8.61
2023-04-24T18:09:58.354Z,8.61
2023-04-24T18:12:25.645Z,8.57
2023-04-24T18:14:59.779Z,8.52
2023-04-24T18:17:33.663Z,8.41
2023-04-24T18:20:00.782Z,8.36
2023-04-24T18:22:27.892Z,8.41
2023-04-24T18:24:55.169Z,8.36
2023-04-24T18:27:24.910Z,8.30
2023-04-24T18:29:52.196Z,8.29
2023-04-24T18:32:19.337Z,8.22
2023-04-24T18:34:46.451Z,8.31
2023-04-24T18:37:13.516Z,8.27
2023-04-24T18:39:40.610Z,8.22
2023-04-24T18:42:07.818Z,8.26
2023-04-24T18:44:34.905Z,8.24
2023-04-24T18:47:02.108Z,8.15
2023-04-24T18:49:29.502Z,8.20
2023-04-24T18:51:56.720Z,8.08
2023-04-24T18:54:23.789Z,8.11
2023-04-24T18:56:51.650Z,8.16
2023-04-24T18:59:19.147Z,8.00
2023-04-24T19:01:47.398Z,7.94
2023-04-24T19:04:15.808Z,8.03
2023-04-24T19:06:43.035Z,8.11
2023-04-24T19:09:10.430Z,8.10
2023-04-24T19:11:37.612Z,8.15
2023-04-24T19:14:05.744Z,8.14
2023-04-24T19:16:32.861Z,8.20
2023-04-24T19:18:59.899Z,8.03
2023-04-24T19:21:27.589Z,8.04
2023-04-24T19:23:56.906Z,8.12
2023-04-24T19:26:24.119Z,8.12
2023-04-24T19:28:53.496Z,8.14
2023-04-24T19:31:21.146Z,8.12
2023-04-24T19:33:48.745Z,8.07
2023-04-24T19:36:17.753Z,7.89
2023-04-24T19:38:45.732Z,7.94
2023-04-24T19:41:12.816Z,7.85
2023-04-24T19:43:39.928Z,7.64
2023-04-24T19:46:07.258Z,7.67
2023-04-24T19:48:34.335Z,7.71
2023-04-24T19:51:02.888Z,7.51
2023-04-24T19:53:30.203Z,7.45
2023-04-24T19:55:57.645Z,7.48
2023-04-24T19:58:24.791Z,7.38
2023-04-24T20:00:51.811Z,7.48
2023-04-24T20:03:32.072Z,7.42
2023-04-24T20:06:00.255Z,7.35
2023-04-24T20:08:27.356Z,7.35
2023-04-24T20:10:54.790Z,7.47
2023-04-24T20:13:21.945Z,7.50
2023-04-24T20:15:49.087Z,7.51
2023-04-24T20:18:16.326Z,7.45
2023-04-24T20:20:43.397Z,7.44
2023-04-24T20:23:10.648Z,7.36
2023-04-24T20:25:37.707Z,7.09
2023-04-24T20:28:07.667Z,7.25
2023-04-24T20:30:34.714Z,7.24
2023-04-24T20:33:01.811Z,7.24
2023-04-24T20:35:28.937Z,7.26
2023-04-24T20:37:56.022Z,7.32
2023-04-24T20:40:23.725Z,7.33
2023-04-24T20:42:51.299Z,7.27
2023-04-24T20:45:18.451Z,7.30
2023-04-24T20:47:45.627Z,7.25
2023-04-24T20:50:12.750Z,7.26
2023-04-24T20:52:39.804Z,7.28
2023-04-24T20:55:07.307Z,7.30
2023-04-24T20:57:34.426Z,7.29
2023-04-24T21:00:03.080Z,7.23
2023-04-24T21:02:30.603Z,7.23
2023-04-24T21:04:57.772Z,7.24
2023-04-24T21:07:24.887Z,7.24
2023-04-24T21:09:51.955Z,7.27
2023-04-24T21:12:18.969Z,7.20
2023-04-24T21:14:46.013Z,7.11
2023-04-24T21:17:13.053Z,7.01
2023-04-24T21:19:40.508Z,6.96
2023-04-24T21:22:07.560Z,7.00
2023-04-24T21:24:34.710Z,7.02
2023-04-24T21:27:01.762Z,7.10
2023-04-24T21:29:28.899Z,7.01
2023-04-24T21:31:56.209Z,7.03
2023-04-24T21:34:23.293Z,7.01
2023-04-24T21:36:50.353Z,6.98
2023-04-24T21:39:17.728Z,7.02
2023-04-24T21:41:45.764Z,6.98
2023-04-24T21:44:13.071Z,6.98
2023-04-24T21:46:42.454Z,7.03
2023-04-24T21:49:09.593Z,7.08
2023-04-24T21:51:36.825Z,7.11
2023-04-24T21:54:03.994Z,7.07
2023-04-24T21:56:31.200Z,7.09
2023-04-24T21:58:58.381Z,7.09
2023-04-24T22:01:25.480Z,6.99
2023-04-24T22:03:53.055Z,6.93
2023-04-24T22:06:20.659Z,6.96
2023-04-24T22:08:47.826Z,6.95
2023-04-24T22:11:25.664Z,6.93
2023-04-24T22:13:54.139Z,6.98
2023-04-24T22:16:22.837Z,6.96
2023-04-24T22:18:53.492Z,7.03
2023-04-24T22:21:21.135Z,7.00
2023-04-24T22:23:48.357Z,7.00
2023-04-24T22:26:15.753Z,6.88
2023-04-24T22:28:42.814Z,6.85
2023-04-24T22:31:09.891Z,6.85
2023-04-24T22:33:37.001Z,6.79
2023-04-24T22:36:04.193Z,6.88
2023-04-24T22:38:31.256Z,6.90
2023-04-24T22:40:58.324Z,6.94
2023-04-24T22:43:26.492Z,6.98
2023-04-24T22:45:53.630Z,6.91
2023-04-24T22:48:20.653Z,6.95
2023-04-24T22:50:47.666Z,6.88
2023-04-24T22:53:14.728Z,6.93
2023-04-24T22:55:41.812Z,6.95
2023-04-24T22:58:08.915Z,6.81
2023-04-24T23:00:36.188Z,6.82
2023-04-24T23:03:03.535Z,6.88
2023-04-24T23:05:31.150Z,6.87
2023-04-24T23:07:58.270Z,6.88
2023-04-24T23:10:25.365Z,6.86
2023-04-24T23:12:52.456Z,6.85
2023-04-24T23:15:19.917Z,6.83
2023-04-24T23:17:46.973Z,6.81
2023-04-24T23:20:14.829Z,6.79
2023-04-24T23:22:42.197Z,6.80
2023-04-24T23:25:09.531Z,6.83
2023-04-24T23:27:37.061Z,6.82
2023-04-24T23:30:04.948Z,6.85
2023-04-24T23:32:32.287Z,6.90
2023-04-24T23:34:59.452Z,6.88
2023-04-24T23:37:26.530Z,6.84
2023-04-24T23:39:53.571Z,6.90
2023-04-24T23:42:21.020Z,6.87
2023-04-24T23:44:48.058Z,6.86
2023-04-24T23:47:15.154Z,6.86
2023-04-24T23:49:42.226Z,6.80
2023-04-24T23:52:09.314Z,6.74
2023-04-24T23:54:36.397Z,6.81
2023-04-24T23:57:03.589Z,6.85
2023-04-24T23:59:30.867Z,6.80
